Time,TemperatureF,DewpointF,PressureIn,WindDirection,WindDirectionDegrees,WindSpeedMPH,WindSpeedGustMPH,Humidity,HourlyPrecipIn,Conditions,Clouds,dailyrainin,SoftwareType,DateUTC
2013-01-30 00:01:00,62.1,41.5,31.02,WSW,257,4.0,5.0,47,0.00,,,0.00,meteohub,2013-01-30 05:01:00,
2013-01-30 00:03:00,62.1,41.5,31.02,SSW,209,5.0,5.0,47,0.00,,,0.00,meteohub,2013-01-30 05:03:00,
2013-01-30 00:04:00,62.1,41.5,31.02,SW,220,0.0,5.0,47,0.00,,,0.00,meteohub,2013-01-30 05:04:00,
2013-01-30 00:09:00,61.9,40.8,31.02,SSW,208,4.0,5.0,46,0.00,,,0.00,meteohub,2013-01-30 05:09:00,
2013-01-30 00:14:00,61.9,41.4,31.02,SW,221,4.0,5.0,47,0.00,,,0.00,meteohub,2013-01-30 05:14:00,
2013-01-30 00:19:00,61.7,41.2,31.02,South,183,4.0,5.0,47,0.00,,,0.00,meteohub,2013-01-30 05:19:00,
2013-01-30 00:24:00,61.5,41.2,31.02,SSW,192,3.0,6.0,47,0.00,,,0.00,meteohub,2013-01-30 05:24:00,
2013-01-30 00:29:00,61.5,41.7,31.02,SW,217,2.0,6.0,48,0.00,,,0.00,meteohub,2013-01-30 05:29:00,
2013-01-30 00:35:00,61.5,41.7,31.02,South,171,3.0,6.0,48,0.00,,,0.00,meteohub,2013-01-30 05:35:00,
2013-01-30 00:40:00,61.5,42.3,31.02,South,190,4.0,7.0,49,0.00,,,0.00,meteohub,2013-01-30 05:40:00,
2013-01-30 00:45:00,61.3,42.1,31.02,South,171,3.0,7.0,49,0.00,,,0.00,meteohub,2013-01-30 05:45:00,
2013-01-30 00:50:00,61.3,42.6,31.02,SSW,209,5.0,6.0,50,0.00,,,0.00,meteohub,2013-01-30 05:50:00,
2013-01-30 00:55:00,61.2,41.9,31.02,South,174,4.0,6.0,49,0.00,,,0.00,meteohub,2013-01-30 05:55:00,
2013-01-30 01:00:00,61.2,42.4,31.02,SSW,207,5.0,6.0,50,0.00,,,0.00,meteohub,2013-01-30 06:00:00,
2013-01-30 01:06:00,61.2,42.4,31.02,SSW,194,4.0,6.0,50,0.00,,,0.00,meteohub,2013-01-30 06:06:00,
2013-01-30 01:11:00,61.2,43.0,31.02,SSE,168,0.0,6.0,51,0.00,,,0.00,meteohub,2013-01-30 06:11:00,
2013-01-30 01:16:00,61.0,42.8,31.02,SSE,162,4.0,6.0,51,0.00,,,0.00,meteohub,2013-01-30 06:16:00,
2013-01-30 01:21:00,61.0,43.2,31.02,SE,137,3.0,5.0,52,0.00,,,0.00,meteohub,2013-01-30 06:21:00,
2013-01-30 01:26:00,61.0,44.2,31.02,SSW,199,4.0,5.0,54,0.00,,,0.00,meteohub,2013-01-30 06:26:00,
2013-01-30 01:31:00,61.0,45.1,31.02,South,189,4.0,6.0,56,0.00,,,0.00,meteohub,2013-01-30 06:31:00,
2013-01-30 01:37:00,61.0,44.8,31.02,SW,221,0.0,6.0,55,0.00,,,0.00,meteohub,2013-01-30 06:37:00,
2013-01-30 01:42:00,61.0,44.8,31.02,SSE,166,4.0,6.0,55,0.00,,,0.00,meteohub,2013-01-30 06:42:00,
2013-01-30 01:47:00,61.0,44.8,31.02,SSW,196,5.0,6.0,55,0.00,,,0.00,meteohub,2013-01-30 06:47:00,
2013-01-30 01:52:00,61.2,45.9,31.02,WSW,256,4.0,6.0,57,0.00,,,0.00,meteohub,2013-01-30 06:52:00,
2013-01-30 01:57:00,61.2,45.9,31.02,South,187,0.0,6.0,57,0.00,,,0.00,meteohub,2013-01-30 06:57:00,
2013-01-30 02:02:00,61.3,47.8,31.02,SSW,208,4.0,6.0,61,0.00,,,0.00,meteohub,2013-01-30 07:02:00,
2013-01-30 02:07:00,61.3,48.6,31.02,SSW,212,3.0,6.0,63,0.00,,,0.00,meteohub,2013-01-30 07:07:00,
2013-01-30 02:12:00,61.5,48.7,31.02,WSW,239,3.0,7.0,63,0.00,,,0.00,meteohub,2013-01-30 07:12:00,
2013-01-30 02:17:00,61.5,48.0,31.02,SW,215,5.0,7.0,61,0.00,,,0.00,meteohub,2013-01-30 07:17:00,
2013-01-30 02:22:00,61.3,48.6,31.02,SW,217,5.0,7.0,63,0.00,,,0.00,meteohub,2013-01-30 07:22:00,
2013-01-30 02:27:00,61.5,48.7,31.02,South,182,4.0,7.0,63,0.00,,,0.00,meteohub,2013-01-30 07:27:00,
2013-01-30 02:32:00,61.5,49.3,31.02,SW,217,3.0,6.0,64,0.00,,,0.00,meteohub,2013-01-30 07:32:00,
2013-01-30 02:37:00,61.3,49.1,31.02,SW,235,4.0,6.0,64,0.00,,,0.00,meteohub,2013-01-30 07:37:00,
2013-01-30 02:42:00,61.3,50.4,31.02,WNW,288,4.0,6.0,67,0.00,,,0.00,meteohub,2013-01-30 07:42:00,
2013-01-30 02:47:00,61.5,51.6,31.02,SSW,200,5.0,6.0,70,0.00,,,0.00,meteohub,2013-01-30 07:47:00,
2013-01-30 02:52:00,61.5,52.0,31.02,WNW,298,5.0,6.0,71,0.00,,,0.00,meteohub,2013-01-30 07:52:00,
2013-01-30 02:57:00,61.7,52.2,31.02,SSW,197,6.0,6.0,71,0.00,,,0.00,meteohub,2013-01-30 07:57:00,
2013-01-30 03:02:00,61.7,52.2,31.02,SSW,208,8.0,8.0,71,0.00,,,0.00,meteohub,2013-01-30 08:02:00,
2013-01-30 03:07:00,61.9,53.1,31.02,SSE,148,4.0,6.0,73,0.00,,,0.00,meteohub,2013-01-30 08:07:00,
2013-01-30 03:12:00,61.9,52.7,31.02,WSW,247,3.0,8.0,72,0.00,,,0.00,meteohub,2013-01-30 08:12:00,
2013-01-30 03:17:00,61.9,52.7,31.02,SSW,210,3.0,8.0,72,0.00,,,0.00,meteohub,2013-01-30 08:17:00,
2013-01-30 03:22:00,61.9,53.1,31.02,SSW,200,5.0,8.0,73,0.00,,,0.00,meteohub,2013-01-30 08:22:00,
2013-01-30 03:27:00,61.9,52.7,31.02,SSW,205,2.0,8.0,72,0.00,,,0.00,meteohub,2013-01-30 08:27:00,
2013-01-30 03:32:00,61.9,52.7,31.02,South,191,3.0,8.0,72,0.00,,,0.00,meteohub,2013-01-30 08:32:00,
2013-01-30 03:37:00,61.9,52.7,31.02,South,172,3.0,8.0,72,0.00,,,0.00,meteohub,2013-01-30 08:37:00,
2013-01-30 03:43:00,61.9,52.7,31.02,SW,224,6.0,6.0,72,0.00,,,0.00,meteohub,2013-01-30 08:43:00,
2013-01-30 03:48:00,61.9,53.8,31.02,SSW,201,3.0,6.0,75,0.00,,,0.00,meteohub,2013-01-30 08:48:00,
2013-01-30 03:53:00,62.1,53.6,31.02,South,179,8.0,8.0,74,0.00,,,0.00,meteohub,2013-01-30 08:53:00,
2013-01-30 03:58:00,62.2,54.1,31.02,WSW,257,6.0,8.0,75,0.00,,,0.00,meteohub,2013-01-30 08:58:00,
2013-01-30 04:03:00,62.2,54.1,31.02,East,91,3.0,9.0,75,0.00,,,0.00,meteohub,2013-01-30 09:03:00,
2013-01-30 04:08:00,62.4,54.0,31.02,South,178,3.0,9.0,74,0.00,,,0.00,meteohub,2013-01-30 09:08:00,
2013-01-30 04:13:00,62.6,54.1,31.02,SW,217,4.0,8.0,74,0.00,,,0.00,meteohub,2013-01-30 09:13:00,
2013-01-30 04:18:00,62.8,54.0,31.02,South,189,3.0,8.0,73,0.00,,,0.00,meteohub,2013-01-30 09:18:00,
2013-01-30 04:23:00,63.0,54.1,31.02,SSW,207,5.0,8.0,73,0.00,,,0.00,meteohub,2013-01-30 09:23:00,
2013-01-30 04:28:00,63.1,54.0,31.02,WSW,246,7.0,8.0,72,0.00,,,0.00,meteohub,2013-01-30 09:28:00,
2013-01-30 04:33:00,63.3,53.8,31.02,SSW,207,10.0,10.0,71,0.00,,,0.00,meteohub,2013-01-30 09:33:00,
2013-01-30 04:39:00,63.5,53.6,31.02,SW,216,6.0,11.0,70,0.00,,,0.00,meteohub,2013-01-30 09:39:00,
2013-01-30 04:44:00,63.7,53.2,31.02,SSW,212,5.0,11.0,69,0.00,,,0.00,meteohub,2013-01-30 09:44:00,
2013-01-30 04:49:00,63.9,53.1,31.02,South,179,8.0,11.0,68,0.00,,,0.00,meteohub,2013-01-30 09:49:00,
2013-01-30 04:54:00,64.0,52.9,31.02,South,190,4.0,10.0,67,0.00,,,0.00,meteohub,2013-01-30 09:54:00,
2013-01-30 04:59:00,64.2,52.7,31.02,SSE,167,6.0,10.0,66,0.00,,,0.00,meteohub,2013-01-30 09:59:00,
2013-01-30 05:04:00,64.2,52.2,31.02,SSW,206,8.0,10.0,65,0.00,,,0.00,meteohub,2013-01-30 10:04:00,
2013-01-30 05:09:00,64.4,52.0,31.02,South,187,5.0,10.0,64,0.00,,,0.00,meteohub,2013-01-30 10:09:00,
2013-01-30 05:14:00,64.4,52.0,31.02,SW,220,8.0,11.0,64,0.00,,,0.00,meteohub,2013-01-30 10:14:00,
2013-01-30 05:20:00,64.4,51.6,31.02,SSW,212,4.0,11.0,63,0.00,,,0.00,meteohub,2013-01-30 10:20:00,
2013-01-30 05:25:00,64.6,51.3,31.02,SE,134,8.0,11.0,62,0.00,,,0.00,meteohub,2013-01-30 10:25:00,
2013-01-30 05:30:00,64.6,51.3,31.02,South,177,6.0,11.0,62,0.00,,,0.00,meteohub,2013-01-30 10:30:00,
2013-01-30 05:35:00,64.6,50.9,31.02,South,172,7.0,11.0,61,0.00,,,0.00,meteohub,2013-01-30 10:35:00,
2013-01-30 05:40:00,64.6,50.9,31.02,SSW,193,4.0,10.0,61,0.00,,,0.00,meteohub,2013-01-30 10:40:00,
2013-01-30 05:45:00,64.8,51.1,31.02,SSE,162,3.0,10.0,61,0.00,,,0.00,meteohub,2013-01-30 10:45:00,
2013-01-30 05:51:00,64.6,51.3,31.02,SSW,192,6.0,10.0,62,0.00,,,0.00,meteohub,2013-01-30 10:51:00,
2013-01-30 05:56:00,64.6,51.3,31.02,SE,137,6.0,11.0,62,0.00,,,0.00,meteohub,2013-01-30 10:56:00,
2013-01-30 06:01:00,64.6,51.3,31.02,SW,224,3.0,11.0,62,0.00,,,0.00,meteohub,2013-01-30 11:01:00,
2013-01-30 06:06:00,64.4,52.0,31.02,WSW,241,4.0,11.0,64,0.00,,,0.00,meteohub,2013-01-30 11:06:00,
2013-01-30 06:11:00,64.4,52.0,31.02,SW,216,4.0,11.0,64,0.00,,,0.00,meteohub,2013-01-30 11:11:00,
2013-01-30 06:16:00,64.4,52.0,31.02,SSW,198,4.0,9.0,64,0.00,,,0.00,meteohub,2013-01-30 11:16:00,
2013-01-30 06:21:00,64.4,51.6,31.02,SSE,167,4.0,9.0,63,0.00,,,0.00,meteohub,2013-01-30 11:21:00,
2013-01-30 06:27:00,64.4,52.0,31.02,SSW,200,5.0,9.0,64,0.00,,,0.00,meteohub,2013-01-30 11:27:00,
2013-01-30 06:32:00,64.4,52.0,31.02,SSW,195,4.0,9.0,64,0.00,,,0.00,meteohub,2013-01-30 11:32:00,
2013-01-30 06:37:00,64.2,52.7,31.02,South,189,3.0,9.0,66,0.00,,,0.00,meteohub,2013-01-30 11:37:00,
2013-01-30 06:42:00,64.2,53.1,31.02,South,184,4.0,9.0,67,0.00,,,0.00,meteohub,2013-01-30 11:42:00,
2013-01-30 06:47:00,64.2,53.4,31.02,SSW,202,6.0,9.0,68,0.00,,,0.00,meteohub,2013-01-30 11:47:00,
2013-01-30 06:52:00,64.0,53.2,31.02,SSW,211,4.0,9.0,68,0.00,,,0.00,meteohub,2013-01-30 11:52:00,
2013-01-30 06:57:00,64.0,53.6,31.02,South,183,4.0,12.0,69,0.00,,,0.00,meteohub,2013-01-30 11:57:00,
2013-01-30 07:02:00,64.0,53.6,31.02,SSW,206,8.0,12.0,69,0.00,,,0.00,meteohub,2013-01-30 12:02:00,
2013-01-30 07:07:00,64.0,54.1,31.02,WSW,238,4.0,12.0,70,0.00,,,0.00,meteohub,2013-01-30 12:07:00,
2013-01-30 07:12:00,64.0,54.1,31.02,ESE,115,3.0,10.0,70,0.00,,,0.00,meteohub,2013-01-30 12:12:00,
2013-01-30 07:17:00,64.0,54.1,31.02,SSW,198,5.0,10.0,70,0.00,,,0.00,meteohub,2013-01-30 12:17:00,
2013-01-30 07:22:00,64.2,54.3,31.02,SSW,203,0.0,8.0,70,0.00,,,0.00,meteohub,2013-01-30 12:22:00,
2013-01-30 07:27:00,64.2,54.3,31.02,SSW,212,6.0,8.0,70,0.00,,,0.00,meteohub,2013-01-30 12:27:00,
2013-01-30 07:32:00,64.2,54.3,31.02,WSW,253,4.0,8.0,70,0.00,,,0.00,meteohub,2013-01-30 12:32:00,
2013-01-30 07:37:00,64.4,53.6,31.02,SSW,210,5.0,8.0,68,0.00,,,0.00,meteohub,2013-01-30 12:37:00,
2013-01-30 07:42:00,64.4,53.6,31.02,SSW,198,6.0,9.0,68,0.00,,,0.00,meteohub,2013-01-30 12:42:00,
2013-01-30 07:47:00,64.6,53.4,31.02,West,268,4.0,9.0,67,0.00,,,0.00,meteohub,2013-01-30 12:47:00,
2013-01-30 07:52:00,64.6,52.9,31.02,West,265,2.0,9.0,66,0.00,,,0.00,meteohub,2013-01-30 12:52:00,
2013-01-30 07:57:00,64.8,52.3,31.02,SSW,201,5.0,9.0,64,0.00,,,0.00,meteohub,2013-01-30 12:57:00,
2013-01-30 08:02:00,64.8,52.3,31.02,West,260,6.0,9.0,64,0.00,,,0.00,meteohub,2013-01-30 13:02:00,
2013-01-30 08:07:00,64.8,51.8,31.02,South,181,3.0,9.0,63,0.00,,,0.00,meteohub,2013-01-30 13:07:00,
2013-01-30 08:12:00,64.9,52.0,31.02,WSW,248,3.0,10.0,63,0.00,,,0.00,meteohub,2013-01-30 13:12:00,
2013-01-30 08:17:00,64.9,51.6,31.02,South,180,4.0,10.0,62,0.00,,,0.00,meteohub,2013-01-30 13:17:00,
2013-01-30 08:22:00,65.1,50.9,31.02,SSW,192,4.0,11.0,60,0.00,,,0.00,meteohub,2013-01-30 13:22:00,
2013-01-30 08:27:00,65.1,50.4,31.02,ESE,102,3.0,11.0,59,0.00,,,0.00,meteohub,2013-01-30 13:27:00,
2013-01-30 08:32:00,65.3,49.6,31.02,North,353,3.0,11.0,57,0.00,,,0.00,meteohub,2013-01-30 13:32:00,
2013-01-30 08:37:00,65.5,49.3,31.02,West,260,4.0,11.0,56,0.00,,,0.00,meteohub,2013-01-30 13:37:00,
2013-01-30 08:42:00,65.5,49.3,31.02,SSW,200,6.0,11.0,56,0.00,,,0.00,meteohub,2013-01-30 13:42:00,
2013-01-30 08:47:00,65.7,48.6,31.02,South,176,8.0,11.0,54,0.00,,,0.00,meteohub,2013-01-30 13:47:00,
2013-01-30 08:52:00,65.7,48.0,31.02,South,174,8.0,11.0,53,0.00,,,0.00,meteohub,2013-01-30 13:52:00,
2013-01-30 08:57:00,65.8,47.7,31.02,SW,234,2.0,11.0,52,0.00,,,0.00,meteohub,2013-01-30 13:57:00,
2013-01-30 09:02:00,66.0,47.3,31.02,South,175,7.0,11.0,51,0.00,,,0.00,meteohub,2013-01-30 14:02:00,
2013-01-30 09:07:00,66.2,46.9,31.02,SSW,200,7.0,11.0,50,0.00,,,0.00,meteohub,2013-01-30 14:07:00,
2013-01-30 09:12:00,66.4,46.6,31.02,South,183,5.0,12.0,49,0.04,,,0.00,meteohub,2013-01-30 14:12:00,
2013-01-30 09:17:00,66.4,46.0,31.02,SW,229,9.0,12.0,48,0.04,,,0.04,meteohub,2013-01-30 14:17:00,
2013-01-30 09:22:00,66.6,45.7,31.02,SSW,207,8.0,12.0,47,0.04,,,0.04,meteohub,2013-01-30 14:22:00,
2013-01-30 09:27:00,66.6,45.7,31.02,West,259,8.0,12.0,47,0.04,,,0.04,meteohub,2013-01-30 14:27:00,
2013-01-30 09:32:00,66.6,45.7,31.02,SW,229,5.0,12.0,47,0.04,,,0.04,meteohub,2013-01-30 14:32:00,
2013-01-30 09:37:00,66.7,45.9,31.02,SSW,207,9.0,12.0,47,0.04,,,0.04,meteohub,2013-01-30 14:37:00,
2013-01-30 09:42:00,66.9,45.5,31.02,South,183,3.0,11.0,46,0.04,,,0.04,meteohub,2013-01-30 14:42:00,
2013-01-30 09:47:00,66.9,45.5,31.02,SSW,211,10.0,11.0,46,0.04,,,0.04,meteohub,2013-01-30 14:47:00,
2013-01-30 09:52:00,67.1,45.0,31.02,West,278,5.0,15.0,45,0.04,,,0.04,meteohub,2013-01-30 14:52:00,
2013-01-30 09:57:00,67.1,45.0,31.02,WSW,239,6.0,15.0,45,0.04,,,0.04,meteohub,2013-01-30 14:57:00,
2013-01-30 10:02:00,67.3,45.1,31.02,SW,230,8.0,15.0,45,0.04,,,0.04,meteohub,2013-01-30 15:02:00,
2013-01-30 10:07:00,67.3,45.1,31.02,SW,227,9.0,15.0,45,0.04,,,0.04,meteohub,2013-01-30 15:07:00,
2013-01-30 10:12:00,67.3,45.1,31.02,SW,215,6.0,12.0,45,0.00,,,0.04,meteohub,2013-01-30 15:12:00,
2013-01-30 10:17:00,67.5,45.3,31.02,South,183,8.0,12.0,45,0.00,,,0.04,meteohub,2013-01-30 15:17:00,
2013-01-30 10:22:00,67.5,45.3,31.02,SSW,204,5.0,13.0,45,0.00,,,0.04,meteohub,2013-01-30 15:22:00,
2013-01-30 10:27:00,67.6,45.0,31.02,South,178,3.0,13.0,44,0.00,,,0.04,meteohub,2013-01-30 15:27:00,
2013-01-30 10:32:00,67.6,45.0,31.02,SSE,159,5.0,11.0,44,0.00,,,0.04,meteohub,2013-01-30 15:32:00,
2013-01-30 10:37:00,67.6,45.0,31.02,SSE,168,4.0,11.0,44,0.00,,,0.04,meteohub,2013-01-30 15:37:00,
2013-01-30 10:42:00,67.8,45.1,31.02,SW,233,5.0,11.0,44,0.00,,,0.04,meteohub,2013-01-30 15:42:00,
2013-01-30 10:47:00,67.8,45.1,31.02,SSE,168,4.0,11.0,44,0.00,,,0.04,meteohub,2013-01-30 15:47:00,
2013-01-30 10:52:00,67.8,45.1,31.02,SW,223,12.0,12.0,44,0.00,,,0.04,meteohub,2013-01-30 15:52:00,
2013-01-30 10:57:00,67.8,45.1,31.02,ENE,62,4.0,12.0,44,0.00,,,0.04,meteohub,2013-01-30 15:57:00,
2013-01-30 11:02:00,68.0,45.3,31.02,WSW,242,3.0,12.0,44,0.00,,,0.04,meteohub,2013-01-30 16:02:00,
2013-01-30 11:07:00,68.0,44.6,31.02,SW,215,12.0,12.0,43,0.00,,,0.04,meteohub,2013-01-30 16:07:00,
2013-01-30 11:12:00,68.2,44.8,31.02,South,189,3.0,12.0,43,0.00,,,0.04,meteohub,2013-01-30 16:12:00,
2013-01-30 11:17:00,68.2,44.8,31.02,WSW,238,6.0,12.0,43,0.00,,,0.04,meteohub,2013-01-30 16:17:00,
2013-01-30 11:22:00,68.4,45.0,31.02,South,190,8.0,13.0,43,0.00,,,0.04,meteohub,2013-01-30 16:22:00,
2013-01-30 11:27:00,68.4,45.0,31.02,WNW,291,5.0,13.0,43,0.00,,,0.04,meteohub,2013-01-30 16:27:00,
2013-01-30 11:32:00,68.4,45.0,31.02,SSW,204,8.0,11.0,43,0.00,,,0.04,meteohub,2013-01-30 16:32:00,
2013-01-30 11:37:00,68.4,45.0,31.02,NW,307,10.0,11.0,43,0.00,,,0.04,meteohub,2013-01-30 16:37:00,
2013-01-30 11:42:00,68.4,45.0,31.02,SW,230,8.0,12.0,43,0.00,,,0.04,meteohub,2013-01-30 16:42:00,
2013-01-30 11:47:00,68.4,45.0,31.02,SSW,204,3.0,12.0,43,0.00,,,0.04,meteohub,2013-01-30 16:47:00,
2013-01-30 11:52:00,68.2,46.0,31.02,South,178,6.0,15.0,45,0.00,,,0.04,meteohub,2013-01-30 16:52:00,
2013-01-30 11:57:00,67.8,46.9,31.02,SSW,199,6.0,15.0,47,0.00,,,0.04,meteohub,2013-01-30 16:57:00,
2013-01-30 12:02:00,67.5,46.6,31.02,SSW,197,11.0,13.0,47,0.00,,,0.04,meteohub,2013-01-30 17:02:00,
2013-01-30 12:07:00,67.3,47.5,31.02,NW,310,10.0,13.0,49,0.00,,,0.04,meteohub,2013-01-30 17:07:00,
2013-01-30 12:12:00,67.3,48.0,31.02,South,185,10.0,11.0,50,0.00,,,0.04,meteohub,2013-01-30 17:12:00,
2013-01-30 12:17:00,67.3,48.6,31.02,South,177,4.0,11.0,51,0.00,,,0.04,meteohub,2013-01-30 17:17:00,
2013-01-30 12:22:00,67.3,48.0,31.02,SSW,206,6.0,11.0,50,0.00,,,0.04,meteohub,2013-01-30 17:22:00,
2013-01-30 12:27:00,67.3,47.5,31.02,SSE,152,4.0,11.0,49,0.00,,,0.04,meteohub,2013-01-30 17:27:00,
2013-01-30 12:32:00,67.5,47.1,31.02,WSW,249,8.0,11.0,48,0.00,,,0.04,meteohub,2013-01-30 17:32:00,
2013-01-30 12:37:00,67.6,47.3,31.02,South,180,6.0,11.0,48,0.00,,,0.04,meteohub,2013-01-30 17:37:00,
2013-01-30 12:42:00,67.8,46.9,31.02,SSW,192,6.0,11.0,47,0.00,,,0.04,meteohub,2013-01-30 17:42:00,
2013-01-30 12:47:00,67.8,46.9,31.02,SSW,205,9.0,11.0,47,0.00,,,0.04,meteohub,2013-01-30 17:47:00,
2013-01-30 12:52:00,68.0,46.4,31.02,SW,236,5.0,15.0,46,0.00,,,0.04,meteohub,2013-01-30 17:52:00,
2013-01-30 12:57:00,67.8,46.9,31.02,SSE,159,5.0,15.0,47,0.00,,,0.04,meteohub,2013-01-30 17:57:00,
2013-01-30 13:02:00,67.8,46.9,31.02,SSW,197,4.0,15.0,47,0.00,,,0.04,meteohub,2013-01-30 18:02:00,
2013-01-30 13:07:00,67.8,46.9,31.02,SSW,202,5.0,15.0,47,0.00,,,0.04,meteohub,2013-01-30 18:07:00,
2013-01-30 13:12:00,67.6,47.3,31.02,SW,221,6.0,13.0,48,0.00,,,0.04,meteohub,2013-01-30 18:12:00,
2013-01-30 13:17:00,67.6,48.9,31.02,SW,217,11.0,13.0,51,0.00,,,0.04,meteohub,2013-01-30 18:17:00,
2013-01-30 13:23:00,67.3,49.1,31.02,SW,231,6.0,11.0,52,0.00,,,0.04,meteohub,2013-01-30 18:23:00,
2013-01-30 13:28:00,67.3,50.0,31.02,SSW,212,8.0,11.0,54,0.00,,,0.04,meteohub,2013-01-30 18:28:00,
2013-01-30 13:33:00,67.5,50.7,31.02,South,170,11.0,12.0,55,0.00,,,0.04,meteohub,2013-01-30 18:33:00,
2013-01-30 13:38:00,67.8,50.0,31.02,SSE,162,3.0,12.0,53,0.00,,,0.04,meteohub,2013-01-30 18:38:00,
2013-01-30 13:43:00,68.0,49.3,31.02,SW,234,10.0,12.0,51,0.00,,,0.04,meteohub,2013-01-30 18:43:00,
2013-01-30 13:48:00,68.0,48.7,31.02,SSE,160,6.0,12.0,50,0.00,,,0.04,meteohub,2013-01-30 18:48:00,
2013-01-30 13:53:00,68.2,47.7,31.02,WSW,245,8.0,11.0,48,0.00,,,0.04,meteohub,2013-01-30 18:53:00,
2013-01-30 13:58:00,68.2,47.1,31.02,South,190,9.0,15.0,47,0.00,,,0.04,meteohub,2013-01-30 18:58:00,
2013-01-30 14:03:00,68.2,47.1,31.02,SW,234,6.0,15.0,47,0.00,,,0.04,meteohub,2013-01-30 19:03:00,
2013-01-30 14:09:00,68.2,47.1,31.02,ESE,106,10.0,15.0,47,0.00,,,0.04,meteohub,2013-01-30 19:09:00,
2013-01-30 14:14:00,68.2,47.1,31.02,WSW,258,6.0,15.0,47,0.00,,,0.04,meteohub,2013-01-30 19:14:00,
2013-01-30 14:19:00,68.0,46.9,31.02,SW,224,3.0,12.0,47,0.00,,,0.04,meteohub,2013-01-30 19:19:00,
2013-01-30 14:24:00,68.0,46.9,31.02,South,187,6.0,12.0,47,0.00,,,0.04,meteohub,2013-01-30 19:24:00,
2013-01-30 14:29:00,68.0,46.9,31.02,SSE,162,7.0,11.0,47,0.00,,,0.04,meteohub,2013-01-30 19:29:00,
2013-01-30 14:34:00,68.0,46.9,31.02,SSW,206,6.0,11.0,47,0.00,,,0.04,meteohub,2013-01-30 19:34:00,
2013-01-30 14:39:00,68.0,46.9,31.02,SSW,203,10.0,11.0,47,0.00,,,0.04,meteohub,2013-01-30 19:39:00,
2013-01-30 14:44:00,68.2,47.1,31.02,SSW,194,7.0,11.0,47,0.00,,,0.04,meteohub,2013-01-30 19:44:00,
2013-01-30 14:49:00,68.4,47.3,31.02,SSW,207,8.0,13.0,47,0.00,,,0.04,meteohub,2013-01-30 19:49:00,
2013-01-30 14:55:00,68.9,47.3,31.02,South,180,3.0,13.0,46,0.00,,,0.04,meteohub,2013-01-30 19:55:00,
2013-01-30 15:00:00,69.1,46.2,31.02,South,172,8.0,13.0,44,0.00,,,0.04,meteohub,2013-01-30 20:00:00,
2013-01-30 15:05:00,69.1,45.7,31.02,South,169,11.0,13.0,43,0.00,,,0.04,meteohub,2013-01-30 20:05:00,
2013-01-30 15:10:00,69.4,46.0,31.02,WSW,238,9.0,14.0,43,0.00,,,0.04,meteohub,2013-01-30 20:10:00,
2013-01-30 15:15:00,69.6,46.2,31.02,SSE,165,6.0,14.0,43,0.00,,,0.04,meteohub,2013-01-30 20:15:00,
2013-01-30 15:20:00,69.8,45.7,31.02,SW,232,8.0,14.0,42,0.00,,,0.04,meteohub,2013-01-30 20:20:00,
2013-01-30 15:25:00,69.8,45.7,31.02,SSW,200,8.0,14.0,42,0.00,,,0.04,meteohub,2013-01-30 20:25:00,
2013-01-30 15:30:00,69.8,45.0,31.02,WSW,238,10.0,13.0,41,0.00,,,0.04,meteohub,2013-01-30 20:30:00,
2013-01-30 15:35:00,70.0,45.1,31.02,South,185,7.0,13.0,41,0.00,,,0.04,meteohub,2013-01-30 20:35:00,
2013-01-30 15:40:00,70.0,44.6,31.02,WSW,245,4.0,16.0,40,0.00,,,0.04,meteohub,2013-01-30 20:40:00,
2013-01-30 15:46:00,70.3,44.2,31.02,South,172,8.0,16.0,39,0.00,,,0.04,meteohub,2013-01-30 20:46:00,
2013-01-30 15:51:00,70.7,43.9,31.02,SW,214,5.0,13.0,38,0.00,,,0.04,meteohub,2013-01-30 20:51:00,
2013-01-30 15:56:00,71.1,43.5,31.02,SSW,204,2.0,13.0,37,0.00,,,0.04,meteohub,2013-01-30 20:56:00,
2013-01-30 16:01:00,70.9,42.6,31.02,SSE,149,8.0,13.0,36,0.00,,,0.04,meteohub,2013-01-30 21:01:00,
2013-01-30 16:06:00,71.1,42.8,31.02,SSW,211,4.0,13.0,36,0.00,,,0.04,meteohub,2013-01-30 21:06:00,
2013-01-30 16:11:00,71.1,42.8,31.02,South,177,3.0,13.0,36,0.00,,,0.04,meteohub,2013-01-30 21:11:00,
2013-01-30 16:16:00,71.1,42.8,31.02,South,170,8.0,13.0,36,0.00,,,0.04,meteohub,2013-01-30 21:16:00,
2013-01-30 16:21:00,70.9,42.6,31.02,SE,130,4.0,11.0,36,0.00,,,0.04,meteohub,2013-01-30 21:21:00,
2013-01-30 16:26:00,70.5,42.3,31.02,South,175,5.0,11.0,36,0.00,,,0.04,meteohub,2013-01-30 21:26:00,
2013-01-30 16:32:00,70.5,42.3,31.02,ESE,110,4.0,9.0,36,0.00,,,0.04,meteohub,2013-01-30 21:32:00,
2013-01-30 16:37:00,70.5,42.3,31.02,SW,230,6.0,9.0,36,0.00,,,0.04,meteohub,2013-01-30 21:37:00,
2013-01-30 16:42:00,70.5,42.3,31.02,SSW,194,6.0,12.0,36,0.00,,,0.04,meteohub,2013-01-30 21:42:00,
2013-01-30 16:47:00,70.5,42.3,31.02,South,185,5.0,12.0,36,0.00,,,0.04,meteohub,2013-01-30 21:47:00,
2013-01-30 16:52:00,70.3,42.1,31.02,West,280,3.0,12.0,36,0.00,,,0.04,meteohub,2013-01-30 21:52:00,
2013-01-30 16:57:00,70.3,42.1,31.02,SW,222,5.0,12.0,36,0.00,,,0.04,meteohub,2013-01-30 21:57:00,
2013-01-30 17:02:00,70.2,41.9,31.02,South,185,8.0,13.0,36,0.00,,,0.04,meteohub,2013-01-30 22:02:00,
2013-01-30 17:07:00,70.2,41.9,31.02,SSW,198,6.0,13.0,36,0.00,,,0.04,meteohub,2013-01-30 22:07:00,
2013-01-30 17:12:00,70.2,41.9,31.02,South,185,6.0,13.0,36,0.00,,,0.04,meteohub,2013-01-30 22:12:00,
2013-01-30 17:17:00,70.2,41.9,31.02,South,177,6.0,13.0,36,0.00,,,0.04,meteohub,2013-01-30 22:17:00,
2013-01-30 17:22:00,70.2,41.9,31.02,WSW,252,6.0,14.0,36,0.00,,,0.04,meteohub,2013-01-30 22:22:00,
2013-01-30 17:27:00,70.0,41.7,31.02,SE,141,6.0,14.0,36,0.00,,,0.04,meteohub,2013-01-30 22:27:00,
2013-01-30 17:32:00,70.0,41.0,31.02,SSW,202,13.0,13.0,35,0.00,,,0.04,meteohub,2013-01-30 22:32:00,
2013-01-30 17:37:00,70.0,41.0,31.02,ENE,66,3.0,13.0,35,0.00,,,0.04,meteohub,2013-01-30 22:37:00,
2013-01-30 17:42:00,69.8,41.0,31.02,SW,217,8.0,13.0,35,0.00,,,0.04,meteohub,2013-01-30 22:42:00,
2013-01-30 17:47:00,69.8,41.0,31.02,SSW,197,6.0,13.0,35,0.00,,,0.04,meteohub,2013-01-30 22:47:00,
2013-01-30 17:52:00,69.8,41.0,31.02,South,181,8.0,13.0,35,0.00,,,0.04,meteohub,2013-01-30 22:52:00,
2013-01-30 17:58:00,69.8,41.0,31.02,SSW,201,5.0,13.0,35,0.00,,,0.04,meteohub,2013-01-30 22:58:00,
2013-01-30 18:03:00,69.8,40.1,31.02,West,267,11.0,13.0,34,0.00,,,0.04,meteohub,2013-01-30 23:03:00,
2013-01-30 18:08:00,69.8,40.1,31.02,South,184,8.0,13.0,34,0.00,,,0.04,meteohub,2013-01-30 23:08:00,
2013-01-30 18:13:00,69.8,40.1,31.02,WSW,244,6.0,13.0,34,0.00,,,0.04,meteohub,2013-01-30 23:13:00,
2013-01-30 18:18:00,69.6,39.9,31.02,SW,232,6.0,13.0,34,0.00,,,0.04,meteohub,2013-01-30 23:18:00,
2013-01-30 18:23:00,69.6,40.8,31.02,SSE,161,6.0,13.0,35,0.00,,,0.04,meteohub,2013-01-30 23:23:00,
2013-01-30 18:28:00,69.4,40.6,31.02,South,181,8.0,13.0,35,0.00,,,0.04,meteohub,2013-01-30 23:28:00,
2013-01-30 18:33:00,69.4,40.6,31.02,ENE,70,6.0,13.0,35,0.00,,,0.04,meteohub,2013-01-30 23:33:00,
2013-01-30 18:38:00,69.4,40.6,31.02,South,190,8.0,15.0,35,0.00,,,0.04,meteohub,2013-01-30 23:38:00,
2013-01-30 18:43:00,69.4,40.6,31.02,SW,223,5.0,15.0,35,0.00,,,0.04,meteohub,2013-01-30 23:43:00,
2013-01-30 18:49:00,69.4,40.6,31.02,SSE,159,6.0,13.0,35,0.00,,,0.04,meteohub,2013-01-30 23:49:00,
2013-01-30 18:54:00,69.3,40.5,31.02,South,179,4.0,13.0,35,0.00,,,0.04,meteohub,2013-01-30 23:54:00,
2013-01-30 18:59:00,69.3,40.5,31.02,SSW,204,4.0,13.0,35,0.00,,,0.04,meteohub,2013-01-30 23:59:00,
2013-01-30 19:04:00,69.4,40.6,31.02,West,269,8.0,13.0,35,0.00,,,0.04,meteohub,2013-01-31 00:04:00,
2013-01-30 19:09:00,69.3,40.5,31.02,South,173,6.0,15.0,35,0.00,,,0.04,meteohub,2013-01-31 00:09:00,
2013-01-30 19:14:00,69.3,40.5,31.02,South,176,11.0,15.0,35,0.00,,,0.04,meteohub,2013-01-31 00:14:00,
2013-01-30 19:19:00,69.3,40.5,31.02,SW,220,5.0,15.0,35,0.00,,,0.00,meteohub,2013-01-31 00:19:00,
2013-01-30 19:24:00,69.3,40.5,31.02,South,182,6.0,15.0,35,0.00,,,0.00,meteohub,2013-01-31 00:24:00,
2013-01-30 19:29:00,69.1,40.3,31.02,South,177,9.0,15.0,35,0.00,,,0.00,meteohub,2013-01-31 00:29:00,
2013-01-30 19:34:00,69.1,40.3,31.02,SSE,165,6.0,15.0,35,0.00,,,0.00,meteohub,2013-01-31 00:34:00,
2013-01-30 19:39:00,68.9,40.1,31.02,SE,142,13.0,16.0,35,0.00,,,0.00,meteohub,2013-01-31 00:39:00,
2013-01-30 19:44:00,68.9,40.8,31.02,SSE,158,11.0,16.0,36,0.00,,,0.00,meteohub,2013-01-31 00:44:00,
2013-01-30 19:50:00,68.9,40.8,31.02,NNE,24,9.0,13.0,36,0.00,,,0.00,meteohub,2013-01-31 00:50:00,
2013-01-30 19:55:00,68.9,40.1,31.02,South,179,2.0,13.0,35,0.00,,,0.00,meteohub,2013-01-31 00:55:00,
2013-01-30 20:00:00,68.9,40.1,31.02,SSE,163,13.0,17.0,35,0.00,,,0.00,meteohub,2013-01-31 01:00:00,
2013-01-30 20:05:00,68.9,40.1,31.02,SSE,165,4.0,17.0,35,0.00,,,0.00,meteohub,2013-01-31 01:05:00,
2013-01-30 20:10:00,68.9,40.1,31.02,SSE,166,11.0,15.0,35,0.00,,,0.00,meteohub,2013-01-31 01:10:00,
2013-01-30 20:15:00,69.1,40.3,31.02,WSW,251,5.0,15.0,35,0.00,,,0.00,meteohub,2013-01-31 01:15:00,
2013-01-30 20:20:00,68.9,40.1,31.02,SE,141,9.0,13.0,35,0.00,,,0.00,meteohub,2013-01-31 01:20:00,
2013-01-30 20:25:00,68.9,40.1,31.02,NW,319,5.0,13.0,35,0.00,,,0.00,meteohub,2013-01-31 01:25:00,
2013-01-30 20:30:00,68.9,40.1,31.02,SSW,198,6.0,13.0,35,0.00,,,0.00,meteohub,2013-01-31 01:30:00,
2013-01-30 20:36:00,68.9,40.1,31.02,SSW,198,8.0,13.0,35,0.00,,,0.00,meteohub,2013-01-31 01:36:00,
2013-01-30 20:41:00,69.1,40.3,31.02,South,175,11.0,13.0,35,0.00,,,0.00,meteohub,2013-01-31 01:41:00,
2013-01-30 20:46:00,69.1,40.3,31.02,South,169,7.0,13.0,35,0.00,,,0.00,meteohub,2013-01-31 01:46:00,
2013-01-30 20:51:00,69.1,40.3,31.02,SSE,163,13.0,15.0,35,0.00,,,0.00,meteohub,2013-01-31 01:51:00,
2013-01-30 20:56:00,69.3,41.2,31.02,SSE,165,4.0,15.0,36,0.00,,,0.00,meteohub,2013-01-31 01:56:00,
2013-01-30 21:01:00,69.3,41.2,31.02,SW,224,8.0,15.0,36,0.00,,,0.00,meteohub,2013-01-31 02:01:00,
2013-01-30 21:06:00,69.3,41.2,31.02,SSE,161,4.0,15.0,36,0.00,,,0.00,meteohub,2013-01-31 02:06:00,
2013-01-30 21:11:00,69.3,41.2,31.02,SSW,212,12.0,15.0,36,0.00,,,0.00,meteohub,2013-01-31 02:11:00,
2013-01-30 21:16:00,69.4,41.4,31.02,SSW,198,4.0,15.0,36,0.00,,,0.00,meteohub,2013-01-31 02:16:00,
2013-01-30 21:21:00,69.4,41.4,31.02,SW,231,4.0,19.0,36,0.00,,,0.00,meteohub,2013-01-31 02:21:00,
2013-01-30 21:27:00,69.4,41.4,31.02,WNW,288,10.0,19.0,36,0.00,,,0.00,meteohub,2013-01-31 02:27:00,
2013-01-30 21:32:00,69.4,41.4,31.02,South,189,8.0,19.0,36,0.00,,,0.00,meteohub,2013-01-31 02:32:00,
2013-01-30 21:37:00,69.4,41.4,31.02,South,181,6.0,19.0,36,0.00,,,0.00,meteohub,2013-01-31 02:37:00,
2013-01-30 21:42:00,69.4,41.4,31.02,SW,214,10.0,21.0,36,0.00,,,0.00,meteohub,2013-01-31 02:42:00,
2013-01-30 21:47:00,69.4,41.4,31.02,SSW,200,15.0,21.0,36,0.00,,,0.00,meteohub,2013-01-31 02:47:00,
2013-01-30 21:52:00,69.6,41.5,31.02,SSW,207,8.0,21.0,36,0.00,,,0.00,meteohub,2013-01-31 02:52:00,
2013-01-30 21:57:00,69.6,41.5,31.02,SW,230,10.0,21.0,36,0.00,,,0.00,meteohub,2013-01-31 02:57:00,
2013-01-30 22:02:00,69.6,41.5,31.02,SE,144,10.0,15.0,36,0.00,,,0.00,meteohub,2013-01-31 03:02:00,
2013-01-30 22:07:00,69.8,41.7,31.02,SW,221,8.0,15.0,36,0.00,,,0.00,meteohub,2013-01-31 03:07:00,
2013-01-30 22:12:00,69.8,41.7,31.02,SSW,211,8.0,13.0,36,0.00,,,0.00,meteohub,2013-01-31 03:12:00,
2013-01-30 22:17:00,69.8,42.4,31.02,SSW,211,8.0,13.0,37,0.00,,,0.00,meteohub,2013-01-31 03:17:00,
2013-01-30 22:22:00,69.4,43.3,31.02,SSW,211,10.0,15.0,39,0.00,,,0.00,meteohub,2013-01-31 03:22:00,
2013-01-30 22:27:00,69.1,43.2,31.02,SSE,161,8.0,15.0,39,0.00,,,0.00,meteohub,2013-01-31 03:27:00,
2013-01-30 22:32:00,69.1,43.7,31.02,SW,216,7.0,14.0,40,0.00,,,0.00,meteohub,2013-01-31 03:32:00,
2013-01-30 22:37:00,68.9,44.2,31.02,SSW,209,15.0,15.0,41,0.00,,,0.00,meteohub,2013-01-31 03:37:00,
2013-01-30 22:42:00,68.7,44.8,31.02,SSW,199,3.0,17.0,42,0.00,,,0.00,meteohub,2013-01-31 03:42:00,
2013-01-30 22:47:00,68.4,45.0,31.02,South,179,8.0,17.0,43,0.00,,,0.00,meteohub,2013-01-31 03:47:00,
2013-01-30 22:52:00,68.2,45.5,31.02,SSW,208,8.0,17.0,44,0.00,,,0.00,meteohub,2013-01-31 03:52:00,
2013-01-30 22:57:00,68.2,45.5,31.02,South,186,5.0,17.0,44,0.00,,,0.00,meteohub,2013-01-31 03:57:00,
2013-01-30 23:02:00,68.0,45.9,31.02,South,190,11.0,14.0,45,0.00,,,0.00,meteohub,2013-01-31 04:02:00,
2013-01-30 23:07:00,67.8,46.2,31.02,SSE,152,11.0,14.0,46,0.00,,,0.00,meteohub,2013-01-31 04:07:00,
2013-01-30 23:12:00,67.6,46.8,31.02,WSW,241,4.0,16.0,47,0.04,,,0.04,meteohub,2013-01-31 04:12:00,
2013-01-30 23:17:00,67.6,47.3,31.02,South,181,5.0,16.0,48,0.04,,,0.04,meteohub,2013-01-31 04:17:00,
2013-01-30 23:22:00,67.6,47.3,31.02,South,174,5.0,16.0,48,0.04,,,0.04,meteohub,2013-01-31 04:22:00,
2013-01-30 23:27:00,67.6,47.3,31.02,SSE,151,8.0,16.0,48,0.04,,,0.04,meteohub,2013-01-31 04:27:00,
2013-01-30 23:32:00,67.6,47.3,31.02,SE,144,8.0,15.0,48,0.04,,,0.04,meteohub,2013-01-31 04:32:00,
2013-01-30 23:37:00,67.6,47.3,31.02,SW,227,14.0,15.0,48,0.04,,,0.04,meteohub,2013-01-31 04:37:00,
2013-01-30 23:42:00,67.8,48.0,31.02,SSW,199,8.0,17.0,49,0.04,,,0.04,meteohub,2013-01-31 04:42:00,
2013-01-30 23:47:00,67.6,50.4,31.02,NNW,342,6.0,17.0,54,0.04,,,0.04,meteohub,2013-01-31 04:47:00,
2013-01-30 23:52:00,65.7,47.5,31.02,NNE,22,5.0,20.0,52,0.13,,,0.04,meteohub,2013-01-31 04:52:00,
2013-01-30 23:57:00,64.0,50.4,31.02,South,170,3.0,20.0,61,0.13,,,0.42,meteohub,2013-01-31 04:57:00,